Time;durP1;ratioP1;P1;durP2;ratioP2;P2;SDS_P1;SDS_P2;PMS_P1;PMS_P2;Temp;Humidity;BMP_temperature;BMP_pressure;BME280_temperature;BME280_humidity;BME280_pressure;Samples;Min_cycle;Max_cycle;Signal;HPM_P1;HPM_P2
2021/06/08 00:01:09;;;;;;;3.37;1.95;;;;;;;19.66;58.05;100278.47;1822791;77;22163;-70
2021/06/08 00:03:42;;;;;;;4.17;2.02;;;;;;;19.63;58.11;100282.18;1828848;77;22175;-70
2021/06/08 00:06:28;;;;;;;3.50;1.98;;;;;;;19.57;58.15;100288.71;1732495;81;21158;-67
2021/06/08 00:09:01;;;;;;;6.33;2.50;;;;;;;19.57;58.18;100282.03;1852546;77;22179;-66
2021/06/08 00:11:34;;;;;;;6.10;2.08;;;;;;;19.53;58.28;100287.14;1833844;77;22155;-71
2021/06/08 00:14:20;;;;;;;4.47;2.00;;;;;;;19.46;58.27;100294.58;1767987;80;21214;-67
2021/06/08 00:16:53;;;;;;;5.75;2.00;;;;;;;19.44;58.45;100281.78;1835737;77;22579;-71
2021/06/08 00:19:26;;;;;;;6.67;1.90;;;;;;;19.40;58.61;100276.69;1844376;77;22187;-71
2021/06/08 00:21:59;;;;;;;5.22;2.37;;;;;;;19.05;59.70;100285.51;1826598;77;22578;-72
2021/06/08 00:24:32;;;;;;;3.65;1.92;;;;;;;18.64;61.03;100275.02;1806761;77;22203;-72
2021/06/08 00:27:12;;;;;;;5.92;1.90;;;;;;;18.98;60.27;100268.11;1833559;77;22212;-71
2021/06/08 00:29:45;;;;;;;6.78;1.92;;;;;;;18.58;61.32;100266.38;1841536;77;22628;-67
2021/06/08 00:32:18;;;;;;;2.90;2.08;;;;;;;18.50;61.66;100271.23;1812270;77;22170;-71
2021/06/08 00:35:04;;;;;;;2.92;1.90;;;;;;;18.46;61.69;100272.76;1763024;80;21289;-72
2021/06/08 00:37:39;;;;;;;3.80;1.82;;;;;;;18.52;61.86;100272.02;1847479;77;22154;-71
2021/06/08 00:40:13;;;;;;;6.28;2.12;;;;;;;18.48;62.00;100270.44;1816223;77;22198;-71
2021/06/08 00:42:58;;;;;;;3.47;2.17;;;;;;;18.46;61.85;100269.64;1760891;81;21146;-68
2021/06/08 00:45:32;;;;;;;5.12;1.87;;;;;;;18.41;62.16;100259.66;1813970;77;22171;-66
2021/06/08 00:48:06;;;;;;;3.05;2.10;;;;;;;19.03;60.58;100250.05;1828051;77;22159;-70
2021/06/08 00:50:45;;;;;;;5.90;2.60;;;;;;;19.12;60.24;100259.41;1784471;77;22238;-66
2021/06/08 00:53:19;;;;;;;3.17;2.17;;;;;;;18.73;61.04;100262.59;1817349;77;22147;-66
2021/06/08 00:56:05;;;;;;;4.25;2.10;;;;;;;18.38;61.92;100264.65;1698259;83;21126;-67
2021/06/08 00:58:38;;;;;;;3.30;2.02;;;;;;;19.24;59.67;100268.59;1824504;77;22554;-72
2021/06/08 01:01:12;;;;;;;6.03;1.92;;;;;;;19.27;59.34;100260.44;1802295;77;22231;-67
2021/06/08 01:03:58;;;;;;;2.65;1.60;;;;;;;19.23;59.20;100262.38;1764471;81;21146;-73
2021/06/08 01:06:35;;;;;;;3.47;1.85;;;;;;;19.25;59.18;100263.17;1851781;77;22155;-66
2021/06/08 01:09:08;;;;;;;3.87;2.12;;;;;;;19.25;59.12;100261.84;1821043;77;22608;-66
2021/06/08 01:11:54;;;;;;;3.83;2.05;;;;;;;19.22;59.13;100265.14;1777640;80;21157;-68
2021/06/08 01:14:27;;;;;;;4.42;2.20;;;;;;;19.24;59.05;100260.59;1823715;77;22171;-71
2021/06/08 01:17:01;;;;;;;5.10;2.10;;;;;;;19.25;59.01;100257.83;1835408;77;22616;-72
2021/06/08 01:19:37;;;;;;;4.33;1.82;;;;;;;19.27;58.92;100260.44;1844731;77;22169;-72
2021/06/08 01:22:21;;;;;;;3.00;1.90;;;;;;;19.24;58.82;100264.59;1766764;81;21539;-67
2021/06/08 01:24:54;;;;;;;2.15;1.52;;;;;;;19.24;58.68;100264.11;1814857;77;22597;-73
2021/06/08 01:27:27;;;;;;;5.17;2.42;;;;;;;19.22;58.69;100266.48;1820062;77;22197;-66
2021/06/08 01:30:00;;;;;;;5.65;2.20;;;;;;;19.18;58.76;100264.45;1838071;77;22217;-66
2021/06/08 01:32:45;;;;;;;2.72;1.90;;;;;;;19.14;58.70;100269.05;1771633;80;21157;-67
2021/06/08 01:35:20;;;;;;;3.60;2.10;;;;;;;19.08;58.79;100261.84;1803872;77;22178;-66
2021/06/08 01:37:53;;;;;;;3.00;2.10;;;;;;;18.81;59.57;100262.20;1820485;77;22146;-66
2021/06/08 01:40:26;;;;;;;4.03;1.95;;;;;;;18.94;59.23;100271.34;1804473;77;22669;-72
2021/06/08 01:42:59;;;;;;;3.67;1.72;;;;;;;18.93;59.13;100270.10;1833740;77;22120;-66
2021/06/08 01:45:50;;;;;;;3.20;1.90;;;;;;;18.88;59.14;100272.97;1764696;80;21751;-73
2021/06/08 01:48:23;;;;;;;3.67;1.85;;;;;;;18.87;59.02;100275.24;1834451;77;22120;-67
2021/06/08 01:51:02;;;;;;;2.20;1.75;;;;;;;18.84;58.93;100277.60;1802524;77;22634;-66
2021/06/08 01:53:46;;;;;;;3.60;1.82;;;;;;;18.80;58.86;100284.02;1834477;77;22160;-73
2021/06/08 01:56:22;;;;;;;9.70;2.17;;;;;;;18.74;59.01;100284.31;1788383;77;22240;-73
2021/06/08 01:59:17;;;;;;;4.05;2.30;;;;;;;18.69;59.06;100283.21;1828662;77;20264;-66
2021/06/08 02:02:13;;;;;;;5.65;2.15;;;;;;;18.64;59.04;100285.23;1834500;77;22128;-66
2021/06/08 02:04:52;;;;;;;4.85;2.45;;;;;;;18.60;59.00;100285.42;1812535;77;22190;-71
2021/06/08 02:07:35;;;;;;;6.47;2.08;;;;;;;18.56;59.00;100293.56;1834354;77;22125;-72
2021/06/08 02:10:38;;;;;;;4.15;1.92;;;;;;;18.51;59.11;100295.61;1703298;83;21167;-68
2021/06/08 02:13:34;;;;;;;4.28;2.00;;;;;;;17.79;60.96;100292.58;1823417;77;22664;-66
2021/06/08 02:16:20;;;;;;;6.60;2.58;;;;;;;18.45;59.47;100287.90;1790309;77;28042;-71
2021/06/08 02:19:06;;;;;;;4.62;1.95;;;;;;;18.56;58.87;100285.57;1758901;80;21735;-72
2021/06/08 02:21:41;;;;;;;3.90;1.75;;;;;;;18.64;58.65;100290.56;1828995;77;22139;-72
2021/06/08 02:24:20;;;;;;;5.60;2.52;;;;;;;18.63;58.64;100286.61;1815548;77;28432;-71
2021/06/08 02:26:58;;;;;;;4.75;2.00;;;;;;;18.61;58.61;100290.70;1846021;77;22151;-66
2021/06/08 02:29:46;;;;;;;4.53;2.10;;;;;;;18.53;58.73;100286.20;1784270;80;21600;-68
2021/06/08 02:32:19;;;;;;;3.08;2.22;;;;;;;18.55;58.98;100281.66;1811271;77;22598;-72
2021/06/08 02:34:53;;;;;;;3.35;2.15;;;;;;;18.54;59.08;100283.92;1840740;77;22213;-66
2021/06/08 02:37:26;;;;;;;4.87;2.33;;;;;;;18.51;59.28;100287.61;1846370;77;22155;-71
2021/06/08 02:40:13;;;;;;;4.03;2.00;;;;;;;18.49;59.40;100289.94;1788605;78;21295;-68
2021/06/08 02:42:47;;;;;;;3.85;1.90;;;;;;;18.58;59.52;100285.52;1834495;77;22180;-71
2021/06/08 02:45:20;;;;;;;8.05;2.27;;;;;;;18.67;59.43;100285.53;1829274;77;22631;-71
2021/06/08 02:48:07;;;;;;;7.62;2.37;;;;;;;18.71;59.37;100293.78;1761782;81;21195;-68
2021/06/08 02:50:40;;;;;;;2.47;1.98;;;;;;;18.85;59.26;100288.66;1787021;77;22238;-66
2021/06/08 02:53:16;;;;;;;5.22;1.92;;;;;;;18.90;59.08;100295.58;1834469;77;22559;-66
2021/06/08 02:55:51;;;;;;;5.10;2.80;;;;;;;18.91;59.10;100291.49;1811805;77;28038;-71
2021/06/08 02:58:37;;;;;;;3.08;2.17;;;;;;;18.93;59.08;100295.44;1786453;80;21577;-72
2021/06/08 03:01:16;;;;;;;4.33;2.62;;;;;;;19.00;59.18;100293.75;1798991;77;22171;-72
2021/06/08 03:03:52;;;;;;;8.03;2.35;;;;;;;19.03;59.33;100298.05;1831566;77;22170;-71
2021/06/08 03:06:42;;;;;;;7.83;2.45;;;;;;;19.04;59.43;100298.94;1760904;81;21305;-67
2021/06/08 03:09:16;;;;;;;4.50;2.10;;;;;;;19.13;59.51;100302.00;1813441;77;22165;-66
2021/06/08 03:11:52;;;;;;;4.47;2.45;;;;;;;19.22;59.44;100302.50;1834344;77;22168;-73
2021/06/08 03:14:25;;;;;;;3.52;2.27;;;;;;;19.27;59.46;100299.98;1807846;77;22222;-74
2021/06/08 03:17:13;;;;;;;4.65;2.37;;;;;;;19.32;59.39;100305.10;1767306;80;21293;-75
2021/06/08 03:19:47;;;;;;;3.47;2.50;;;;;;;19.44;59.39;100304.46;1824012;77;22613;-66
2021/06/08 03:22:20;;;;;;;3.35;2.20;;;;;;;19.52;59.44;100303.22;1833739;77;22148;-65
2021/06/08 03:24:55;;;;;;;4.97;2.20;;;;;;;19.58;59.54;100310.45;1813183;77;22202;-75
2021/06/08 03:27:28;;;;;;;4.55;2.50;;;;;;;19.66;59.63;100310.05;1798018;77;22205;-65
2021/06/08 03:30:16;;;;;;;3.95;2.33;;;;;;;19.71;59.64;100313.36;1770300;80;21353;-67
2021/06/08 03:32:50;;;;;;;4.65;2.20;;;;;;;19.86;59.60;100305.02;1791930;77;22192;-74
2021/06/08 03:35:25;;;;;;;8.90;2.10;;;;;;;19.97;59.54;100309.81;1812559;77;22208;-66
2021/06/08 03:38:11;;;;;;;5.05;2.40;;;;;;;20.03;59.43;100306.82;1761676;81;21293;-67
2021/06/08 03:40:44;;;;;;;7.33;2.77;;;;;;;20.17;59.46;100303.89;1816773;77;22571;-75
2021/06/08 03:43:18;;;;;;;8.35;3.02;;;;;;;20.25;59.28;100303.02;1819962;77;22151;-76
2021/06/08 03:46:03;;;;;;;5.00;2.92;;;;;;;19.89;60.38;100310.23;1757748;80;21204;-78
2021/06/08 03:48:36;;;;;;;4.60;2.75;;;;;;;20.25;59.63;100299.46;1822368;77;22154;-66
2021/06/08 03:51:10;;;;;;;6.15;2.87;;;;;;;20.23;59.98;100309.37;1791434;77;22250;-66
2021/06/08 03:53:57;;;;;;;5.72;2.72;;;;;;;20.31;59.85;100313.83;1755813;80;21106;-77
2021/06/08 03:56:30;;;;;;;6.87;3.00;;;;;;;20.44;59.76;100306.00;1810168;77;22205;-74
2021/06/08 03:59:03;;;;;;;8.85;4.03;;;;;;;20.54;59.61;100310.36;1819151;77;22567;-74
2021/06/08 04:01:36;;;;;;;5.80;3.22;;;;;;;20.62;59.50;100304.12;1819177;77;22171;-66
2021/06/08 04:04:17;;;;;;;10.10;4.45;;;;;;;20.74;59.34;100305.27;1825527;77;22539;-67
2021/06/08 04:07:03;;;;;;;8.03;3.30;;;;;;;20.82;59.42;100308.88;1770322;80;21685;-77
2021/06/08 04:09:36;;;;;;;6.95;3.30;;;;;;;20.95;59.07;100306.74;1809120;77;22559;-66
2021/06/08 04:12:10;;;;;;;6.65;3.50;;;;;;;21.07;58.97;100308.34;1819375;77;22155;-74
2021/06/08 04:14:43;;;;;;;6.55;3.50;;;;;;;21.19;58.79;100310.77;1811029;77;22213;-75
2021/06/08 04:17:17;;;;;;;6.60;3.35;;;;;;;21.30;58.60;100311.02;1818513;77;22614;-67
2021/06/08 04:19:50;;;;;;;10.45;4.12;;;;;;;21.42;58.30;100309.43;1819269;77;22190;-66
2021/06/08 04:22:36;;;;;;;7.62;3.05;;;;;;;21.49;58.15;100308.58;1760421;81;21130;-67
2021/06/08 04:25:11;;;;;;;9.60;4.47;;;;;;;21.69;58.03;100306.08;1787717;77;28038;-66
2021/06/08 04:27:44;;;;;;;6.83;3.50;;;;;;;21.81;57.72;100297.31;1830669;77;23331;-66
2021/06/08 04:30:18;;;;;;;8.43;3.65;;;;;;;21.97;57.40;100300.41;1818704;77;22175;-74
2021/06/08 04:32:52;;;;;;;6.62;3.33;;;;;;;22.10;57.15;100302.69;1820431;77;22145;-75
2021/06/08 04:35:25;;;;;;;11.08;3.75;;;;;;;22.21;56.96;100296.67;1833424;77;22201;-76
2021/06/08 04:37:58;;;;;;;7.12;3.25;;;;;;;22.32;56.65;100296.00;1834471;77;22200;-66
2021/06/08 04:40:31;;;;;;;8.48;3.27;;;;;;;22.42;55.57;100298.48;1809664;77;22221;-66
2021/06/08 04:43:04;;;;;;;6.40;3.37;;;;;;;22.54;55.60;100302.69;1812180;77;22134;-66
2021/06/08 04:45:38;;;;;;;9.10;3.62;;;;;;;22.68;55.29;100299.16;1812608;77;22206;-66
2021/06/08 04:48:31;;;;;;;6.83;3.20;;;;;;;22.84;54.90;100300.35;1827549;77;22709;-66
2021/06/08 04:51:20;;;;;;;8.93;4.53;;;;;;;22.99;54.21;100293.11;1820424;77;22185;-65
2021/06/08 04:53:53;;;;;;;7.10;3.22;;;;;;;23.14;54.27;100298.81;1834142;77;22180;-65
2021/06/08 04:56:26;;;;;;;8.03;3.50;;;;;;;23.29;53.97;100298.77;1909828;74;22152;-78
2021/06/08 04:59:15;;;;;;;6.45;2.95;;;;;;;23.41;53.74;100304.66;1790829;79;21129;-80
2021/06/08 05:01:48;;;;;;;4.70;2.40;;;;;;;23.74;53.66;100299.78;1819524;77;22186;-65
2021/06/08 05:04:22;;;;;;;5.08;2.80;;;;;;;23.95;52.31;100298.77;1847492;77;23295;-77
2021/06/08 05:07:09;;;;;;;5.58;2.95;;;;;;;23.97;52.58;100298.18;1790228;80;21305;-66
2021/06/08 05:09:46;;;;;;;7.50;2.90;;;;;;;24.10;52.12;100298.20;1831048;77;22233;-66
2021/06/08 05:12:19;;;;;;;6.25;2.95;;;;;;;24.22;51.34;100295.63;1834169;77;22595;-65
2021/06/08 05:15:07;;;;;;;7.08;2.85;;;;;;;24.31;51.24;100305.70;1701172;83;21640;-81
2021/06/08 05:17:40;;;;;;;8.35;3.25;;;;;;;24.58;51.36;100299.31;1808470;77;28407;-77
2021/06/08 05:20:13;;;;;;;5.83;3.05;;;;;;;24.77;50.71;100300.20;1803844;77;22222;-77
2021/06/08 05:22:47;;;;;;;5.90;2.85;;;;;;;25.00;50.48;100301.20;1828183;77;22151;-77
2021/06/08 05:25:33;;;;;;;5.67;2.62;;;;;;;25.14;49.42;100305.55;1774180;80;21821;-78
2021/06/08 05:28:06;;;;;;;5.00;2.90;;;;;;;25.33;49.07;100304.17;1820891;77;22582;-80
2021/06/08 05:30:40;;;;;;;4.87;2.55;;;;;;;25.43;48.64;100301.13;1811947;77;22658;-79
2021/06/08 05:33:26;;;;;;;4.67;2.55;;;;;;;25.54;48.43;100307.94;1761417;80;21171;-78
2021/06/08 05:35:59;;;;;;;3.65;2.52;;;;;;;25.73;47.97;100305.66;1804539;77;22201;-78
2021/06/08 05:38:36;;;;;;;5.00;2.75;;;;;;;25.79;47.62;100295.74;1820613;77;22203;-76
2021/06/08 05:41:22;;;;;;;6.55;2.85;;;;;;;25.82;47.36;100308.98;1761109;80;21265;-78
2021/06/08 05:43:55;;;;;;;7.50;2.72;;;;;;;25.96;46.81;100299.34;1833768;77;22160;-75
2021/06/08 05:46:32;;;;;;;5.75;2.55;;;;;;;26.12;47.04;100303.50;1842627;78;22167;-76
2021/06/08 05:49:08;;;;;;;7.25;3.20;;;;;;;26.34;47.30;100303.18;1807382;77;28072;-77
2021/06/08 05:51:42;;;;;;;5.92;2.40;;;;;;;26.57;46.85;100296.77;1830430;77;22583;-67
2021/06/08 05:54:15;;;;;;;3.58;2.25;;;;;;;26.76;45.90;100298.45;1824409;77;22155;-76
2021/06/08 05:56:48;;;;;;;5.33;2.70;;;;;;;26.93;45.65;100298.47;1823492;77;22139;-65
2021/06/08 05:59:22;;;;;;;4.67;2.45;;;;;;;27.07;45.63;100291.41;1829325;77;22684;-78
2021/06/08 06:01:55;;;;;;;9.08;3.45;;;;;;;27.26;45.11;100289.36;1832643;77;23130;-66
2021/06/08 06:04:43;;;;;;;7.28;2.80;;;;;;;27.37;44.87;100293.88;1785109;80;21210;-66
2021/06/08 06:07:17;;;;;;;7.25;2.70;;;;;;;27.49;44.33;100286.59;1786796;77;28624;-66
2021/06/08 06:09:50;;;;;;;5.30;2.80;;;;;;;27.70;44.33;100285.24;1839935;77;22205;-66
2021/06/08 06:12:23;;;;;;;7.20;2.72;;;;;;;27.93;44.27;100288.30;1821549;77;22172;-78
2021/06/08 06:15:03;;;;;;;5.62;2.58;;;;;;;28.14;44.29;100281.52;1833459;77;23269;-66
2021/06/08 06:17:41;;;;;;;4.35;2.55;;;;;;;28.34;43.17;100284.65;1834388;77;22179;-79
2021/06/08 06:20:14;;;;;;;7.95;2.58;;;;;;;28.47;42.40;100277.66;1813289;77;22688;-75
2021/06/08 06:23:01;;;;;;;4.78;2.45;;;;;;;28.61;42.50;100278.25;1779209;80;21115;-79
2021/06/08 06:25:34;;;;;;;4.83;2.60;;;;;;;28.89;42.56;100276.62;1820159;77;22621;-79
2021/06/08 06:28:17;;;;;;;6.45;2.52;;;;;;;29.10;41.87;100271.59;1817566;77;22164;-66
2021/06/08 06:31:07;;;;;;;4.35;2.22;;;;;;;29.28;41.47;100272.20;1746953;80;21216;-77
2021/06/08 06:33:42;;;;;;;3.17;2.22;;;;;;;29.40;40.73;100271.58;1816117;77;22527;-65
2021/06/08 06:36:17;;;;;;;6.15;2.70;;;;;;;29.54;40.73;100275.20;1821611;77;22213;-81
2021/06/08 06:39:07;;;;;;;6.67;2.30;;;;;;;29.85;40.46;100276.86;1792733;80;21545;-83
2021/06/08 06:41:42;;;;;;;6.97;2.70;;;;;;;30.07;39.47;100266.18;1831689;77;22144;-83
2021/06/08 06:44:19;;;;;;;5.47;2.25;;;;;;;30.12;38.62;100265.23;1817561;77;22543;-80
2021/06/08 06:46:52;;;;;;;3.95;2.17;;;;;;;30.24;39.09;100264.53;1833728;77;22144;-81
2021/06/08 06:49:38;;;;;;;6.37;2.42;;;;;;;30.34;38.21;100277.56;1782353;80;21190;-66
2021/06/08 06:52:11;;;;;;;3.17;2.27;;;;;;;30.46;37.59;100269.22;1831556;77;22155;-79
2021/06/08 06:54:45;;;;;;;5.12;2.33;;;;;;;30.44;37.71;100272.06;1834730;77;22212;-66
2021/06/08 06:57:30;;;;;;;5.25;2.55;;;;;;;30.41;37.67;100270.53;1760654;81;21142;-68
2021/06/08 07:00:06;;;;;;;3.33;2.47;;;;;;;30.56;37.61;100268.15;1806607;77;22640;-66
2021/06/08 07:02:39;;;;;;;5.78;2.52;;;;;;;30.68;37.63;100270.69;1829768;77;22163;-66
2021/06/08 07:05:27;;;;;;;3.17;2.05;;;;;;;30.79;37.57;100260.94;1770259;80;21143;-66
2021/06/08 07:08:04;;;;;;;8.43;2.40;;;;;;;31.07;37.02;100260.02;1830497;77;20230;-65
2021/06/08 07:10:38;;;;;;;4.03;1.82;;;;;;;31.24;35.82;100261.05;1803747;77;22228;-66
2021/06/08 07:13:11;;;;;;;9.68;2.90;;;;;;;31.27;36.25;100261.61;1817697;77;22147;-67
2021/06/08 07:15:57;;;;;;;6.33;2.90;;;;;;;31.23;36.27;100267.00;1753968;81;21175;-67
2021/06/08 07:18:30;;;;;;;6.97;2.50;;;;;;;31.20;36.74;100256.93;1834427;77;22176;-66
2021/06/08 07:21:05;;;;;;;5.83;2.72;;;;;;;31.07;37.33;100254.09;1806605;77;22626;-66
2021/06/08 07:23:55;;;;;;;6.05;2.50;;;;;;;31.14;37.37;100252.95;1731641;81;21356;-67
2021/06/08 07:26:29;;;;;;;6.08;2.98;;;;;;;31.40;37.00;100257.60;1833801;77;22120;-66
2021/06/08 07:29:02;;;;;;;5.72;2.37;;;;;;;31.62;36.81;100258.11;1834028;77;22148;-66
2021/06/08 07:31:58;;;;;;;6.25;2.37;;;;;;;31.07;38.10;100259.53;1818440;77;22186;-65
2021/06/08 07:34:51;;;;;;;6.78;3.05;;;;;;;31.54;37.33;100255.67;1811843;77;28492;-66
2021/06/08 07:37:24;;;;;;;4.58;2.47;;;;;;;31.48;37.94;100251.39;1806313;77;22186;-66
2021/06/08 07:40:09;;;;;;;4.15;2.52;;;;;;;31.49;36.73;100254.45;1818259;77;22193;-66
2021/06/08 07:42:59;;;;;;;5.45;2.90;;;;;;;32.05;36.44;100259.08;1792968;80;21170;-68
2021/06/08 07:45:40;;;;;;;5.30;2.02;;;;;;;31.97;36.00;100251.73;1812967;77;22221;-66
2021/06/08 07:48:20;;;;;;;6.00;2.40;;;;;;;32.27;35.30;100259.01;1834478;77;22140;-66
2021/06/08 07:50:55;;;;;;;5.85;2.92;;;;;;;32.32;35.25;100254.45;1777524;77;22202;-66
2021/06/08 07:53:41;;;;;;;4.42;2.35;;;;;;;32.50;35.89;100252.97;1747310;81;21691;-67
2021/06/08 07:56:14;;;;;;;5.37;2.92;;;;;;;32.32;35.50;100253.95;1798424;77;22154;-66
2021/06/08 07:58:48;;;;;;;5.40;2.60;;;;;;;32.37;35.57;100254.81;1815321;77;22135;-66
2021/06/08 08:01:21;;;;;;;4.95;2.30;;;;;;;32.23;35.59;100262.23;1820296;77;22217;-67
2021/06/08 08:04:09;;;;;;;4.65;2.30;;;;;;;32.22;35.87;100261.36;1792612;80;21276;-68
2021/06/08 08:06:42;;;;;;;5.30;2.85;;;;;;;32.37;35.44;100257.53;1817344;77;27995;-66
2021/06/08 08:09:18;;;;;;;8.63;2.60;;;;;;;32.42;34.94;100248.89;1830869;77;22599;-66
2021/06/08 08:11:52;;;;;;;5.37;2.60;;;;;;;32.45;35.17;100254.84;1802541;77;28064;-67
2021/06/08 08:14:26;;;;;;;5.08;2.52;;;;;;;32.59;34.75;100257.44;1824447;77;22214;-67
2021/06/08 08:17:12;;;;;;;5.70;2.72;;;;;;;32.55;34.50;100264.23;1779160;80;21545;-66
2021/06/08 08:19:45;;;;;;;5.35;2.17;;;;;;;32.58;34.22;100251.64;1819743;77;22186;-66
2021/06/08 08:22:18;;;;;;;4.70;2.50;;;;;;;32.63;34.59;100254.72;1852249;77;22597;-67
2021/06/08 08:24:52;;;;;;;7.55;2.22;;;;;;;32.79;34.47;100259.88;1827176;77;22162;-67
2021/06/08 08:27:26;;;;;;;4.20;2.50;;;;;;;32.84;33.97;100263.48;1830692;77;22163;-67
2021/06/08 08:30:13;;;;;;;5.65;2.00;;;;;;;32.62;33.58;100265.27;1773681;80;21134;-78
2021/06/08 08:32:46;;;;;;;3.85;2.00;;;;;;;32.55;33.76;100256.05;1827439;77;22547;-79
2021/06/08 08:35:20;;;;;;;5.80;2.20;;;;;;;32.52;34.04;100258.27;1830402;77;22641;-75
2021/06/08 08:38:07;;;;;;;6.10;2.25;;;;;;;32.67;33.66;100258.48;1758125;81;21134;-84
2021/06/08 08:40:40;;;;;;;6.72;2.90;;;;;;;32.90;33.12;100256.00;1811787;77;22269;-77
2021/06/08 08:43:13;;;;;;;5.05;2.00;;;;;;;32.98;33.33;100260.10;1836020;77;22194;-77
2021/06/08 08:45:47;;;;;;;7.30;2.58;;;;;;;33.02;33.24;100255.16;1804700;77;22187;-78
2021/06/08 08:48:21;;;;;;;7.97;2.20;;;;;;;32.95;33.55;100259.56;1822129;77;22187;-80
2021/06/08 08:51:07;;;;;;;4.78;2.10;;;;;;;32.89;33.08;100263.34;1756374;80;21123;-76
2021/06/08 08:53:43;;;;;;;4.80;2.12;;;;;;;33.12;32.26;100249.03;1822676;77;22123;-75
2021/06/08 08:56:16;;;;;;;4.72;2.10;;;;;;;33.42;32.37;100251.27;1788383;77;28086;-74
2021/06/08 08:58:49;;;;;;;6.15;1.92;;;;;;;33.45;32.14;100255.86;1834383;77;22152;-77
2021/06/08 09:01:36;;;;;;;5.05;2.02;;;;;;;33.31;31.56;100262.83;1760910;81;21289;-75
2021/06/08 09:04:10;;;;;;;9.15;2.10;;;;;;;33.19;31.90;100248.69;1814784;77;22590;-75
2021/06/08 09:06:43;;;;;;;3.10;2.05;;;;;;;33.21;32.62;100256.20;1823171;77;22183;-79
2021/06/08 09:09:35;;;;;;;3.77;2.67;;;;;;;33.53;31.83;100256.88;1816346;77;22290;-76
2021/06/08 09:12:10;;;;;;;4.95;2.30;;;;;;;33.62;31.34;100253.13;1824040;77;22179;-73
2021/06/08 09:14:43;;;;;;;2.62;1.80;;;;;;;33.89;30.34;100253.23;1818798;77;22235;-75
2021/06/08 09:17:18;;;;;;;2.87;1.70;;;;;;;34.07;30.71;100252.16;1832939;77;22211;-73
2021/06/08 09:19:51;;;;;;;3.77;1.87;;;;;;;34.24;31.04;100255.67;1818493;77;22244;-75
2021/06/08 09:22:51;;;;;;;3.52;1.87;;;;;;;34.35;30.23;100255.81;1792580;80;21194;-76
2021/06/08 09:25:40;;;;;;;3.05;1.70;;;;;;;34.58;29.95;100247.70;1815025;77;22621;-74
2021/06/08 09:28:34;;;;;;;4.28;1.70;;;;;;;34.82;29.18;100249.42;1826402;77;22554;-74
2021/06/08 09:31:24;;;;;;;3.33;1.70;;;;;;;34.98;29.17;100250.34;1805126;77;22198;-79
2021/06/08 09:34:12;;;;;;;4.20;2.10;;;;;;;35.07;28.46;100248.42;1831067;77;22167;-77
2021/06/08 09:36:45;;;;;;;32.03;2.87;;;;;;;35.06;28.68;100244.82;1828891;77;22175;-75
2021/06/08 09:39:47;;;;;;;3.33;1.77;;;;;;;35.26;29.47;100242.96;1815779;77;22277;-74
2021/06/08 09:42:27;;;;;;;7.08;2.20;;;;;;;35.39;28.85;100243.16;1794438;77;28029;-75
2021/06/08 09:45:19;;;;;;;3.95;2.10;;;;;;;35.15;29.11;100236.02;1820383;77;22242;-82
2021/06/08 09:48:00;;;;;;;2.65;1.95;;;;;;;35.33;28.72;100238.42;1829132;77;22183;-72
2021/06/08 09:50:49;;;;;;;4.75;2.30;;;;;;;35.37;28.09;100237.02;1772839;80;21604;-81
2021/06/08 09:53:28;;;;;;;5.58;2.30;;;;;;;35.35;28.78;100227.31;1830776;77;22187;-76
2021/06/08 09:56:07;;;;;;;5.58;2.12;;;;;;;35.47;29.40;100231.34;1806663;77;22242;-74
2021/06/08 09:58:53;;;;;;;5.85;2.42;;;;;;;35.75;29.25;100235.33;1816912;77;22194;-73
2021/06/08 10:01:40;;;;;;;4.55;2.22;;;;;;;35.69;28.37;100237.78;1759993;81;21628;-73
2021/06/08 10:04:15;;;;;;;8.53;2.30;;;;;;;35.41;29.56;100234.25;1831046;77;22187;-73
2021/06/08 10:06:49;;;;;;;3.95;2.15;;;;;;;35.35;29.60;100225.41;1817521;77;22186;-75
2021/06/08 10:09:22;;;;;;;5.22;2.20;;;;;;;35.32;30.06;100221.71;1807411;77;22241;-74
2021/06/08 10:12:11;;;;;;;3.77;2.30;;;;;;;35.39;29.84;100224.01;1743689;81;21139;-75
2021/06/08 10:14:44;;;;;;;5.35;2.77;;;;;;;35.67;29.91;100213.84;1826976;77;28462;-76
2021/06/08 10:17:21;;;;;;;6.58;2.33;;;;;;;35.80;29.21;100217.80;1829636;77;22172;-79
2021/06/08 10:20:23;;;;;;;4.15;2.47;;;;;;;35.70;28.77;100212.61;1759959;81;21777;-78
2021/06/08 10:22:58;;;;;;;4.72;2.00;;;;;;;35.69;28.87;100201.33;1834214;77;22555;-80
2021/06/08 10:25:31;;;;;;;3.50;2.17;;;;;;;35.78;29.24;100202.94;1824412;77;22211;-81
2021/06/08 10:28:04;;;;;;;5.67;2.42;;;;;;;35.77;28.68;100198.50;1852047;77;22179;-72
2021/06/08 10:30:40;;;;;;;5.65;2.10;;;;;;;35.85;28.40;100196.17;1812169;77;22206;-73
2021/06/08 10:33:26;;;;;;;5.47;2.25;;;;;;;36.03;28.09;100197.18;1761565;81;21141;-80
2021/06/08 10:36:00;;;;;;;5.00;2.10;;;;;;;36.31;28.12;100191.00;1807174;77;22227;-75
2021/06/08 10:38:33;;;;;;;3.92;2.42;;;;;;;36.25;27.66;100175.33;1826994;77;22187;-75
2021/06/08 10:41:06;;;;;;;4.30;2.30;;;;;;;36.05;27.38;100190.98;1823699;77;22233;-75
2021/06/08 10:43:39;;;;;;;12.07;2.80;;;;;;;35.74;27.08;100175.61;1834361;77;22152;-77
2021/06/08 10:46:48;;;;;;;8.65;2.72;;;;;;;35.53;27.67;100173.63;1731304;83;21182;-79
2021/06/08 10:49:41;;;;;;;5.05;2.70;;;;;;;35.12;27.99;100176.23;1802054;77;28146;-67
2021/06/08 10:52:16;;;;;;;4.95;2.27;;;;;;;34.79;28.83;100169.16;1834439;77;22171;-68
2021/06/08 10:55:05;;;;;;;4.62;2.08;;;;;;;34.80;28.64;100158.55;1779563;80;21151;-83
2021/06/08 10:57:45;;;;;;;3.12;2.00;;;;;;;35.21;28.95;100150.50;1824833;77;22555;-79
2021/06/08 11:00:33;;;;;;;2.70;1.50;;;;;;;35.53;28.69;100144.41;1816692;77;22178;-79
2021/06/08 11:03:08;;;;;;;5.17;2.37;;;;;;;35.78;27.55;100144.09;1833699;77;22144;-77
2021/06/08 11:05:49;;;;;;;2.87;1.72;;;;;;;35.76;27.57;100144.80;1810872;77;22218;-68
2021/06/08 11:08:43;;;;;;;3.42;1.72;;;;;;;36.01;27.40;100137.64;1852802;77;22175;-75
2021/06/08 11:11:22;;;;;;;3.75;1.72;;;;;;;36.26;27.24;100130.46;1821538;77;22205;-67
2021/06/08 11:14:07;;;;;;;2.87;1.70;;;;;;;36.23;26.94;100133.59;1778139;80;21107;-80
2021/06/08 11:16:40;;;;;;;3.52;1.65;;;;;;;36.37;27.22;100136.80;1822338;77;22175;-81
2021/06/08 11:28:15;;;;;;;4.33;2.00;;;;;;;36.38;26.85;100120.70;1834429;77;22200;-68
2021/06/08 11:30:58;;;;;;;5.10;2.10;;;;;;;36.22;25.88;100119.56;1809722;77;22527;-67
2021/06/08 11:38:02;;;;;;;4.45;1.70;;;;;;;36.16;26.94;100114.35;1830662;77;22143;-66
2021/06/08 11:40:42;;;;;;;3.22;1.52;;;;;;;36.15;27.03;100111.28;1830922;77;22198;-67
2021/06/08 11:43:28;;;;;;;4.55;1.60;;;;;;;36.08;26.53;100109.83;1834184;77;22168;-67
2021/06/08 11:46:11;;;;;;;3.05;1.98;;;;;;;35.17;26.95;100101.31;1823324;77;22656;-67
2021/06/08 11:48:51;;;;;;;5.87;2.10;;;;;;;35.25;27.25;100102.60;1834307;77;22172;-66
2021/06/08 11:51:54;;;;;;;3.58;1.70;;;;;;;35.43;27.27;100106.33;1731596;83;21577;-67
2021/06/08 11:54:33;;;;;;;3.20;1.62;;;;;;;35.16;27.92;100098.25;1845109;77;22753;-67
2021/06/08 11:57:12;;;;;;;3.60;2.25;;;;;;;34.93;28.34;100098.28;1834224;77;22188;-67
2021/06/08 11:59:55;;;;;;;4.47;2.10;;;;;;;34.86;28.46;100094.63;1824149;77;22198;-67
2021/06/08 12:02:54;;;;;;;5.45;2.00;;;;;;;34.85;28.82;100092.39;1834148;77;22158;-67
2021/06/08 12:05:36;;;;;;;3.92;1.85;;;;;;;34.92;28.07;100082.92;1810306;77;22222;-67
2021/06/08 12:08:11;;;;;;;4.62;1.90;;;;;;;35.05;28.26;100085.90;1852478;77;22175;-67
2021/06/08 12:10:44;;;;;;;5.00;1.75;;;;;;;35.15;26.97;100084.25;1828166;77;22197;-67
2021/06/08 12:13:17;;;;;;;5.45;2.10;;;;;;;35.16;27.72;100085.11;1848265;77;22535;-67
2021/06/08 12:16:04;;;;;;;5.55;1.90;;;;;;;35.13;28.14;100089.92;1766338;80;21133;-68
2021/06/08 12:18:39;;;;;;;3.35;1.80;;;;;;;35.42;28.21;100086.84;1826344;77;22574;-68
2021/06/08 12:21:19;;;;;;;3.37;1.95;;;;;;;35.71;27.71;100086.53;1800097;77;22229;-67
2021/06/08 12:24:05;;;;;;;6.90;2.00;;;;;;;35.97;27.49;100087.91;1763658;81;21668;-68
2021/06/08 12:26:39;;;;;;;3.80;2.00;;;;;;;36.30;25.60;100091.52;1823476;78;22171;-67
2021/06/08 12:29:18;;;;;;;5.42;2.95;;;;;;;36.44;25.31;100084.80;1818399;77;22198;-67
2021/06/08 12:32:10;;;;;;;3.62;1.87;;;;;;;36.58;25.36;100083.92;1852780;77;22131;-68